sensor_id;sensor_type;location;lat;lon;timestamp;P1;durP1;ratioP1;P2;durP2;ratioP2
5831;SDS011;50943;51.448;7.646;2023-11-19T00:01:56;1.23;;;0.97;;
5831;SDS011;50943;51.448;7.646;2023-11-19T00:04:23;5.00;;;1.00;;
5831;SDS011;50943;51.448;7.646;2023-11-19T00:06:51;1.23;;;0.80;;
5831;SDS011;50943;51.448;7.646;2023-11-19T00:09:17;1.30;;;0.80;;
5831;SDS011;50943;51.448;7.646;2023-11-19T00:11:43;1.20;;;0.80;;
5831;SDS011;50943;51.448;7.646;2023-11-19T00:14:09;1.27;;;0.83;;
5831;SDS011;50943;51.448;7.646;2023-11-19T00:16:36;1.13;;;0.70;;
5831;SDS011;50943;51.448;7.646;2023-11-19T00:19:02;2.07;;;0.90;;
5831;SDS011;50943;51.448;7.646;2023-11-19T00:21:30;1.10;;;0.80;;
5831;SDS011;50943;51.448;7.646;2023-11-19T00:23:59;1.10;;;0.77;;
5831;SDS011;50943;51.448;7.646;2023-11-19T00:26:26;8.60;;;1.07;;
5831;SDS011;50943;51.448;7.646;2023-11-19T00:28:52;1.70;;;0.80;;
5831;SDS011;50943;51.448;7.646;2023-11-19T00:31:21;1.30;;;0.83;;
5831;SDS011;50943;51.448;7.646;2023-11-19T00:33:47;1.30;;;1.00;;
5831;SDS011;50943;51.448;7.646;2023-11-19T00:36:14;1.40;;;1.00;;
5831;SDS011;50943;51.448;7.646;2023-11-19T00:38:40;1.40;;;1.00;;
5831;SDS011;50943;51.448;7.646;2023-11-19T00:41:08;1.30;;;1.00;;
5831;SDS011;50943;51.448;7.646;2023-11-19T00:43:35;1.30;;;0.97;;
5831;SDS011;50943;51.448;7.646;2023-11-19T00:46:02;1.70;;;1.00;;
5831;SDS011;50943;51.448;7.646;2023-11-19T00:48:30;1.33;;;1.03;;
5831;SDS011;50943;51.448;7.646;2023-11-19T00:50:56;2.47;;;1.20;;
5831;SDS011;50943;51.448;7.646;2023-11-19T00:53:23;1.40;;;1.10;;
5831;SDS011;50943;51.448;7.646;2023-11-19T00:55:49;1.40;;;1.07;;
5831;SDS011;50943;51.448;7.646;2023-11-19T00:58:18;2.20;;;1.40;;
5831;SDS011;50943;51.448;7.646;2023-11-19T01:00:44;3.60;;;1.67;;
5831;SDS011;50943;51.448;7.646;2023-11-19T01:03:11;1.77;;;1.47;;
5831;SDS011;50943;51.448;7.646;2023-11-19T01:05:37;4.00;;;1.70;;
5831;SDS011;50943;51.448;7.646;2023-11-19T01:08:04;2.17;;;1.70;;
5831;SDS011;50943;51.448;7.646;2023-11-19T01:10:31;2.13;;;1.70;;
5831;SDS011;50943;51.448;7.646;2023-11-19T01:12:59;3.50;;;1.80;;
5831;SDS011;50943;51.448;7.646;2023-11-19T01:15:26;2.03;;;1.43;;
5831;SDS011;50943;51.448;7.646;2023-11-19T01:17:53;1.97;;;1.47;;
5831;SDS011;50943;51.448;7.646;2023-11-19T01:20:19;4.60;;;1.63;;
5831;SDS011;50943;51.448;7.646;2023-11-19T01:22:46;2.53;;;1.63;;
5831;SDS011;50943;51.448;7.646;2023-11-19T01:25:13;2.53;;;2.10;;
5831;SDS011;50943;51.448;7.646;2023-11-19T01:27:40;2.40;;;2.17;;
5831;SDS011;50943;51.448;7.646;2023-11-19T01:30:07;3.00;;;2.70;;
5831;SDS011;50943;51.448;7.646;2023-11-19T01:32:39;2.80;;;2.10;;
5831;SDS011;50943;51.448;7.646;2023-11-19T01:35:06;2.83;;;2.33;;
5831;SDS011;50943;51.448;7.646;2023-11-19T01:37:33;3.17;;;2.50;;
5831;SDS011;50943;51.448;7.646;2023-11-19T01:40:00;5.10;;;2.60;;
5831;SDS011;50943;51.448;7.646;2023-11-19T01:42:28;4.13;;;2.40;;
5831;SDS011;50943;51.448;7.646;2023-11-19T01:44:57;4.30;;;2.60;;
5831;SDS011;50943;51.448;7.646;2023-11-19T01:47:24;2.70;;;2.40;;
5831;SDS011;50943;51.448;7.646;2023-11-19T01:49:53;2.97;;;2.30;;
5831;SDS011;50943;51.448;7.646;2023-11-19T01:52:19;5.97;;;2.90;;
5831;SDS011;50943;51.448;7.646;2023-11-19T01:54:46;3.53;;;2.83;;
5831;SDS011;50943;51.448;7.646;2023-11-19T01:57:13;4.40;;;2.50;;
5831;SDS011;50943;51.448;7.646;2023-11-19T01:59:40;3.33;;;2.20;;
5831;SDS011;50943;51.448;7.646;2023-11-19T02:02:07;5.23;;;2.40;;
5831;SDS011;50943;51.448;7.646;2023-11-19T02:04:33;5.90;;;2.10;;
5831;SDS011;50943;51.448;7.646;2023-11-19T02:07:01;2.70;;;1.77;;
5831;SDS011;50943;51.448;7.646;2023-11-19T02:09:28;2.40;;;1.60;;
5831;SDS011;50943;51.448;7.646;2023-11-19T02:11:55;4.00;;;1.87;;
5831;SDS011;50943;51.448;7.646;2023-11-19T02:14:22;1.80;;;1.50;;
5831;SDS011;50943;51.448;7.646;2023-11-19T02:16:51;2.43;;;1.70;;
5831;SDS011;50943;51.448;7.646;2023-11-19T02:19:18;1.80;;;1.50;;
5831;SDS011;50943;51.448;7.646;2023-11-19T02:21:45;2.33;;;1.80;;
5831;SDS011;50943;51.448;7.646;2023-11-19T02:24:14;1.60;;;1.50;;
5831;SDS011;50943;51.448;7.646;2023-11-19T02:26:43;2.73;;;1.87;;
5831;SDS011;50943;51.448;7.646;2023-11-19T02:29:14;3.30;;;1.87;;
5831;SDS011;50943;51.448;7.646;2023-11-19T02:31:40;2.17;;;1.83;;
5831;SDS011;50943;51.448;7.646;2023-11-19T02:34:07;2.30;;;2.00;;
5831;SDS011;50943;51.448;7.646;2023-11-19T02:36:33;3.63;;;2.30;;
5831;SDS011;50943;51.448;7.646;2023-11-19T02:39:00;3.87;;;2.40;;
5831;SDS011;50943;51.448;7.646;2023-11-19T02:41:27;5.33;;;2.63;;
5831;SDS011;50943;51.448;7.646;2023-11-19T02:43:54;7.83;;;2.97;;
5831;SDS011;50943;51.448;7.646;2023-11-19T02:46:22;5.50;;;2.20;;
5831;SDS011;50943;51.448;7.646;2023-11-19T02:48:48;5.27;;;2.40;;
5831;SDS011;50943;51.448;7.646;2023-11-19T02:51:15;6.90;;;2.40;;
5831;SDS011;50943;51.448;7.646;2023-11-19T02:53:43;8.33;;;2.23;;
5831;SDS011;50943;51.448;7.646;2023-11-19T02:56:13;9.43;;;2.93;;
5831;SDS011;50943;51.448;7.646;2023-11-19T02:58:45;9.73;;;2.20;;
5831;SDS011;50943;51.448;7.646;2023-11-19T03:01:13;3.73;;;2.30;;
5831;SDS011;50943;51.448;7.646;2023-11-19T03:03:49;9.47;;;2.20;;
5831;SDS011;50943;51.448;7.646;2023-11-19T03:06:19;6.07;;;2.20;;
5831;SDS011;50943;51.448;7.646;2023-11-19T03:08:46;6.80;;;2.20;;
5831;SDS011;50943;51.448;7.646;2023-11-19T03:11:13;6.03;;;2.67;;
5831;SDS011;50943;51.448;7.646;2023-11-19T03:13:39;9.37;;;2.23;;
5831;SDS011;50943;51.448;7.646;2023-11-19T03:16:06;10.07;;;2.07;;
5831;SDS011;50943;51.448;7.646;2023-11-19T03:18:33;5.87;;;1.97;;
5831;SDS011;50943;51.448;7.646;2023-11-19T03:21:01;10.13;;;2.17;;
5831;SDS011;50943;51.448;7.646;2023-11-19T03:23:28;11.80;;;2.30;;
5831;SDS011;50943;51.448;7.646;2023-11-19T03:25:54;12.73;;;2.50;;
5831;SDS011;50943;51.448;7.646;2023-11-19T03:28:22;7.47;;;2.23;;
5831;SDS011;50943;51.448;7.646;2023-11-19T03:30:48;15.10;;;2.07;;
5831;SDS011;50943;51.448;7.646;2023-11-19T03:33:14;13.27;;;2.60;;
5831;SDS011;50943;51.448;7.646;2023-11-19T03:35:41;6.90;;;1.83;;
5831;SDS011;50943;51.448;7.646;2023-11-19T03:38:09;9.73;;;2.23;;
5831;SDS011;50943;51.448;7.646;2023-11-19T03:40:35;12.63;;;2.30;;
5831;SDS011;50943;51.448;7.646;2023-11-19T03:43:03;15.37;;;2.50;;
5831;SDS011;50943;51.448;7.646;2023-11-19T03:45:30;10.03;;;2.10;;
5831;SDS011;50943;51.448;7.646;2023-11-19T03:47:55;15.80;;;3.00;;
5831;SDS011;50943;51.448;7.646;2023-11-19T03:50:21;13.30;;;2.40;;
5831;SDS011;50943;51.448;7.646;2023-11-19T03:52:48;12.40;;;2.33;;
5831;SDS011;50943;51.448;7.646;2023-11-19T03:55:17;14.13;;;2.60;;
5831;SDS011;50943;51.448;7.646;2023-11-19T03:57:43;11.80;;;3.30;;
5831;SDS011;50943;51.448;7.646;2023-11-19T04:00:10;14.70;;;3.13;;
5831;SDS011;50943;51.448;7.646;2023-11-19T04:02:39;17.00;;;3.47;;
5831;SDS011;50943;51.448;7.646;2023-11-19T04:05:06;15.60;;;2.50;;
5831;SDS011;50943;51.448;7.646;2023-11-19T04:07:33;23.20;;;5.83;;
5831;SDS011;50943;51.448;7.646;2023-11-19T04:09:59;12.33;;;2.73;;
5831;SDS011;50943;51.448;7.646;2023-11-19T04:12:27;11.90;;;3.40;;
5831;SDS011;50943;51.448;7.646;2023-11-19T04:14:53;16.40;;;3.80;;
5831;SDS011;50943;51.448;7.646;2023-11-19T04:17:21;12.90;;;3.53;;
5831;SDS011;50943;51.448;7.646;2023-11-19T04:19:48;23.97;;;4.07;;
5831;SDS011;50943;51.448;7.646;2023-11-19T04:22:14;16.37;;;3.70;;
5831;SDS011;50943;51.448;7.646;2023-11-19T04:24:41;16.40;;;3.53;;
5831;SDS011;50943;51.448;7.646;2023-11-19T04:27:09;20.77;;;2.97;;
5831;SDS011;50943;51.448;7.646;2023-11-19T04:29:37;17.07;;;3.13;;
5831;SDS011;50943;51.448;7.646;2023-11-19T04:32:03;20.10;;;2.97;;
5831;SDS011;50943;51.448;7.646;2023-11-19T04:34:30;13.73;;;2.77;;
5831;SDS011;50943;51.448;7.646;2023-11-19T04:36:57;11.97;;;2.53;;
5831;SDS011;50943;51.448;7.646;2023-11-19T04:39:27;17.93;;;2.97;;
5831;SDS011;50943;51.448;7.646;2023-11-19T04:41:53;17.07;;;3.10;;
5831;SDS011;50943;51.448;7.646;2023-11-19T04:44:19;18.93;;;3.47;;
5831;SDS011;50943;51.448;7.646;2023-11-19T04:46:47;17.37;;;4.70;;
5831;SDS011;50943;51.448;7.646;2023-11-19T04:49:14;24.97;;;3.57;;
5831;SDS011;50943;51.448;7.646;2023-11-19T04:51:42;10.53;;;2.93;;
5831;SDS011;50943;51.448;7.646;2023-11-19T04:54:09;19.97;;;3.30;;
5831;SDS011;50943;51.448;7.646;2023-11-19T04:56:35;15.53;;;2.80;;
5831;SDS011;50943;51.448;7.646;2023-11-19T04:59:02;23.33;;;3.60;;
5831;SDS011;50943;51.448;7.646;2023-11-19T05:01:30;22.20;;;4.10;;
5831;SDS011;50943;51.448;7.646;2023-11-19T05:03:58;17.20;;;3.30;;
5831;SDS011;50943;51.448;7.646;2023-11-19T05:06:25;29.43;;;3.70;;
5831;SDS011;50943;51.448;7.646;2023-11-19T05:08:53;22.73;;;4.63;;
5831;SDS011;50943;51.448;7.646;2023-11-19T05:11:20;29.00;;;3.90;;
5831;SDS011;50943;51.448;7.646;2023-11-19T05:13:46;25.77;;;3.87;;
5831;SDS011;50943;51.448;7.646;2023-11-19T05:16:13;17.83;;;3.83;;
5831;SDS011;50943;51.448;7.646;2023-11-19T05:18:40;24.83;;;3.77;;
5831;SDS011;50943;51.448;7.646;2023-11-19T05:21:07;23.20;;;4.27;;
5831;SDS011;50943;51.448;7.646;2023-11-19T05:23:34;24.03;;;3.80;;
5831;SDS011;50943;51.448;7.646;2023-11-19T05:26:00;18.50;;;3.20;;
5831;SDS011;50943;51.448;7.646;2023-11-19T05:28:27;27.77;;;3.67;;
5831;SDS011;50943;51.448;7.646;2023-11-19T05:30:53;30.33;;;4.10;;
5831;SDS011;50943;51.448;7.646;2023-11-19T05:33:20;25.40;;;3.70;;
5831;SDS011;50943;51.448;7.646;2023-11-19T05:35:46;28.23;;;4.43;;
5831;SDS011;50943;51.448;7.646;2023-11-19T05:38:14;20.87;;;3.13;;
5831;SDS011;50943;51.448;7.646;2023-11-19T05:40:41;23.43;;;3.63;;
5831;SDS011;50943;51.448;7.646;2023-11-19T05:43:07;26.97;;;4.60;;
5831;SDS011;50943;51.448;7.646;2023-11-19T05:45:34;30.90;;;4.07;;
5831;SDS011;50943;51.448;7.646;2023-11-19T05:48:01;22.40;;;5.10;;
5831;SDS011;50943;51.448;7.646;2023-11-19T05:50:29;24.03;;;4.83;;
5831;SDS011;50943;51.448;7.646;2023-11-19T05:52:55;28.77;;;5.00;;
5831;SDS011;50943;51.448;7.646;2023-11-19T05:55:23;17.87;;;3.10;;
5831;SDS011;50943;51.448;7.646;2023-11-19T05:57:51;24.97;;;4.30;;
5831;SDS011;50943;51.448;7.646;2023-11-19T06:00:18;23.90;;;3.13;;
5831;SDS011;50943;51.448;7.646;2023-11-19T06:02:44;20.87;;;3.33;;
5831;SDS011;50943;51.448;7.646;2023-11-19T06:05:11;24.37;;;3.90;;
5831;SDS011;50943;51.448;7.646;2023-11-19T06:07:38;16.80;;;3.47;;
5831;SDS011;50943;51.448;7.646;2023-11-19T06:10:06;28.40;;;4.03;;
5831;SDS011;50943;51.448;7.646;2023-11-19T06:12:36;19.20;;;3.97;;
5831;SDS011;50943;51.448;7.646;2023-11-19T06:15:06;31.97;;;3.80;;
5831;SDS011;50943;51.448;7.646;2023-11-19T06:17:33;16.23;;;3.27;;
5831;SDS011;50943;51.448;7.646;2023-11-19T06:20:00;29.83;;;4.93;;
5831;SDS011;50943;51.448;7.646;2023-11-19T06:22:29;24.70;;;3.20;;
5831;SDS011;50943;51.448;7.646;2023-11-19T06:24:56;20.70;;;3.60;;
5831;SDS011;50943;51.448;7.646;2023-11-19T06:27:25;27.77;;;5.00;;
5831;SDS011;50943;51.448;7.646;2023-11-19T06:29:53;18.73;;;3.37;;
5831;SDS011;50943;51.448;7.646;2023-11-19T06:32:19;19.17;;;3.73;;
5831;SDS011;50943;51.448;7.646;2023-11-19T06:34:47;27.63;;;3.67;;
5831;SDS011;50943;51.448;7.646;2023-11-19T06:37:13;22.97;;;5.30;;
5831;SDS011;50943;51.448;7.646;2023-11-19T06:39:40;19.97;;;3.67;;
5831;SDS011;50943;51.448;7.646;2023-11-19T06:42:06;18.97;;;3.40;;
5831;SDS011;50943;51.448;7.646;2023-11-19T06:44:33;25.13;;;4.23;;
5831;SDS011;50943;51.448;7.646;2023-11-19T06:47:01;16.97;;;3.20;;
5831;SDS011;50943;51.448;7.646;2023-11-19T06:49:28;29.37;;;3.87;;
5831;SDS011;50943;51.448;7.646;2023-11-19T06:51:54;29.13;;;3.43;;
5831;SDS011;50943;51.448;7.646;2023-11-19T06:54:21;28.47;;;3.97;;
5831;SDS011;50943;51.448;7.646;2023-11-19T06:56:48;27.43;;;5.20;;
5831;SDS011;50943;51.448;7.646;2023-11-19T06:59:14;31.63;;;4.90;;
5831;SDS011;50943;51.448;7.646;2023-11-19T07:01:41;21.23;;;4.27;;
5831;SDS011;50943;51.448;7.646;2023-11-19T07:04:11;23.03;;;3.97;;
5831;SDS011;50943;51.448;7.646;2023-11-19T07:06:38;28.70;;;3.97;;
5831;SDS011;50943;51.448;7.646;2023-11-19T07:09:06;18.00;;;3.60;;
5831;SDS011;50943;51.448;7.646;2023-11-19T07:11:35;21.00;;;3.40;;
5831;SDS011;50943;51.448;7.646;2023-11-19T07:14:03;17.33;;;4.03;;
5831;SDS011;50943;51.448;7.646;2023-11-19T07:16:31;19.73;;;3.57;;
5831;SDS011;50943;51.448;7.646;2023-11-19T07:18:57;24.47;;;3.87;;
5831;SDS011;50943;51.448;7.646;2023-11-19T07:21:26;22.73;;;3.93;;
5831;SDS011;50943;51.448;7.646;2023-11-19T07:23:54;17.93;;;3.00;;
5831;SDS011;50943;51.448;7.646;2023-11-19T07:26:21;26.80;;;3.70;;
5831;SDS011;50943;51.448;7.646;2023-11-19T07:28:48;23.17;;;3.40;;
